Greenfield, Oklahoma
Current Conditions -  °F | °C
As of 5:35 PM on Monday 20 Oct 2014 (Local Time) from KJWG Reporting Station
Haze Haze  
Wind Chill: 79°   Ceiling: 500
Heat Index: 81°   Visibility: 0.75mi
Dew Point: 65°   Wind: 7mph
Humidity: 61%   Direction: 70°ENE
Pressure: 30.02"   Gusts: NA
Location:  35.73°N, 98.38°W
Report Text: KJWG 202235Z AUTO 07006KT 3/4SM HZ VV005 26/18 A3002 RMK AO2 T02620182
Loading
Personal Weather Stations






























Interactive Weather Map
Tropical Storm Tracking
New forecast layout! Learn more

10-Day Weather Forecast

Advertisements
Track Severe Weather on mobile